Time;durP1;ratioP1;P1;durP2;ratioP2;P2;SDS_P1;SDS_P2;PMS_P1;PMS_P2;Temp;Humidity;BMP_temperature;BMP_pressure;BME280_temperature;BME280_humidity;BME280_pressure;Samples;Min_cycle;Max_cycle;Signal;HPM_P1;HPM_P2
2022/05/11 00:01:25;;;;;;;19.77;17.65;;;13.10;99.90;;;;;;4918318;29;20072;-70
2022/05/11 00:03:55;;;;;;;21.90;17.85;;;13.00;99.90;;;;;;4918243;29;20024;-69
2022/05/11 00:06:21;;;;;;;21.02;16.77;;;13.00;99.90;;;;;;4918176;29;20465;-69
2022/05/11 00:08:46;;;;;;;23.63;17.58;;;13.10;99.90;;;;;;4918076;29;20036;-69
2022/05/11 00:11:12;;;;;;;20.23;17.48;;;13.10;99.90;;;;;;4918110;29;20063;-69
2022/05/11 00:13:38;;;;;;;19.38;14.98;;;13.10;99.90;;;;;;4916777;29;20139;-69
2022/05/11 00:16:04;;;;;;;18.73;15.20;;;13.10;99.90;;;;;;4918042;29;20107;-69
2022/05/11 00:18:30;;;;;;;24.52;16.42;;;13.00;99.90;;;;;;4916663;29;20035;-69
2022/05/11 00:20:56;;;;;;;24.65;16.42;;;13.10;99.90;;;;;;4917944;29;20036;-69
2022/05/11 00:23:22;;;;;;;26.67;17.20;;;13.00;99.90;;;;;;4916378;29;20036;-69
2022/05/11 00:25:48;;;;;;;16.58;14.57;;;13.00;99.90;;;;;;4917830;29;20107;-69
2022/05/11 00:28:15;;;;;;;17.38;15.23;;;12.90;99.90;;;;;;4917710;29;20028;-68
2022/05/11 00:30:42;;;;;;;17.73;12.40;;;12.90;99.90;;;;;;4916183;29;20560;-68
2022/05/11 00:33:10;;;;;;;20.77;15.43;;;12.90;99.90;;;;;;4916423;29;20028;-68
2022/05/11 00:35:36;;;;;;;19.55;16.83;;;12.90;99.90;;;;;;4917327;29;20052;-68
2022/05/11 00:38:04;;;;;;;18.40;15.95;;;12.80;99.90;;;;;;4917625;29;20469;-67
2022/05/11 00:40:30;;;;;;;24.63;15.93;;;12.80;99.90;;;;;;4917840;29;20088;-69
2022/05/11 00:42:56;;;;;;;18.92;16.35;;;12.70;99.90;;;;;;4917445;29;20122;-69
2022/05/11 00:45:22;;;;;;;22.40;16.58;;;12.60;99.90;;;;;;4917533;29;20099;-69
2022/05/11 00:48:00;;;;;;;19.77;16.25;;;12.50;99.90;;;;;;4917375;29;20041;-69
2022/05/11 00:50:29;;;;;;;19.50;15.48;;;12.50;99.90;;;;;;4917454;29;20040;-69
2022/05/11 00:53:11;;;;;;;19.48;16.00;;;12.50;99.90;;;;;;4917322;29;20461;-68
2022/05/11 00:55:57;;;;;;;19.40;15.85;;;;;;;;;;4917437;29;20032;-68
2022/05/11 00:58:38;;;;;;;21.08;17.63;;;12.50;99.90;;;;;;4917481;29;20079;-67
2022/05/11 01:01:04;;;;;;;21.25;14.50;;;12.40;99.90;;;;;;4916064;29;20036;-67
2022/05/11 01:03:37;;;;;;;18.42;14.60;;;;;;;;;;4917270;29;20154;-69
2022/05/11 01:06:03;;;;;;;21.00;15.27;;;;;;;;;;4915491;29;20078;-68
2022/05/11 01:08:30;;;;;;;18.50;14.25;;;12.10;99.90;;;;;;4917049;29;20068;-68
2022/05/11 01:10:56;;;;;;;23.58;15.43;;;12.00;99.90;;;;;;4917098;29;20040;-68
2022/05/11 01:13:22;;;;;;;17.73;15.82;;;12.00;99.90;;;;;;4917420;29;20028;-68
2022/05/11 01:15:50;;;;;;;20.52;15.02;;;12.10;99.90;;;;;;4917034;29;20055;-67
2022/05/11 01:18:18;;;;;;;19.13;15.98;;;12.10;99.90;;;;;;4917014;29;20118;-67
2022/05/11 01:20:44;;;;;;;27.73;18.15;;;12.00;99.90;;;;;;4916991;29;20039;-68
2022/05/11 01:23:29;;;;;;;25.30;18.80;;;12.00;99.90;;;;;;4917009;29;20032;-69
2022/05/11 01:25:54;;;;;;;22.35;17.83;;;12.00;99.90;;;;;;4916992;29;20549;-68
2022/05/11 01:28:21;;;;;;;26.23;17.27;;;12.00;99.90;;;;;;4916855;29;20186;-69
2022/05/11 01:30:52;;;;;;;24.98;18.00;;;11.90;99.90;;;;;;4916890;29;20028;-69
2022/05/11 01:33:24;;;;;;;25.55;16.00;;;11.80;99.90;;;;;;4917190;29;20028;-69
2022/05/11 01:35:54;;;;;;;22.73;15.52;;;;;;;;;;4915165;29;20052;-68
2022/05/11 01:38:44;;;;;;;19.85;16.13;;;11.80;99.90;;;;;;4915522;29;20070;-68
2022/05/11 01:41:18;;;;;;;22.27;16.55;;;11.60;99.90;;;;;;4917166;29;20040;-68
2022/05/11 01:43:44;;;;;;;26.50;16.95;;;11.60;99.90;;;;;;4916800;29;20032;-69
2022/05/11 01:46:10;;;;;;;28.52;19.73;;;11.60;99.90;;;;;;4917056;29;20042;-69
2022/05/11 01:48:36;;;;;;;28.77;18.27;;;11.70;99.90;;;;;;4916667;29;20055;-69
2022/05/11 01:51:04;;;;;;;18.02;14.15;;;11.70;99.90;;;;;;4916735;29;20040;-69
2022/05/11 01:53:30;;;;;;;13.77;12.07;;;11.80;99.90;;;;;;4917061;29;20028;-69
2022/05/11 01:55:56;;;;;;;15.82;10.95;;;11.90;99.90;;;;;;4916689;29;20749;-70
2022/05/11 01:58:24;;;;;;;15.13;12.65;;;11.80;99.90;;;;;;4915476;29;20115;-69
2022/05/11 02:00:50;;;;;;;16.30;13.73;;;11.80;99.90;;;;;;4916678;29;20030;-69
2022/05/11 02:03:20;;;;;;;14.85;12.45;;;11.80;99.90;;;;;;4916627;29;20107;-69
2022/05/11 02:08:36;;;;;;;16.45;13.88;;;11.90;99.90;;;;;;4916278;29;20095;-69
2022/05/11 02:11:03;;;;;;;18.08;14.02;;;11.90;99.90;;;;;;4916574;29;20036;-69
2022/05/11 02:13:30;;;;;;;22.10;14.60;;;11.90;99.90;;;;;;4916557;29;20028;-69
2022/05/11 02:15:56;;;;;;;23.58;15.05;;;11.90;99.90;;;;;;4916537;29;20409;-69
2022/05/11 02:18:23;;;;;;;19.98;15.38;;;11.90;99.90;;;;;;4915620;29;20171;-69
2022/05/11 02:20:48;;;;;;;22.20;16.65;;;11.90;99.90;;;;;;4920361;29;20059;-69
2022/05/11 02:23:16;;;;;;;20.52;16.63;;;11.80;99.90;;;;;;4920070;29;20076;-69
2022/05/11 02:25:47;;;;;;;22.77;15.98;;;11.80;99.90;;;;;;4920098;29;20091;-69
2022/05/11 02:28:14;;;;;;;19.23;16.65;;;11.80;99.90;;;;;;4919959;29;20116;-69
2022/05/11 02:30:45;;;;;;;21.98;17.98;;;11.80;99.90;;;;;;4920184;29;20059;-70
2022/05/11 02:33:12;;;;;;;25.80;16.83;;;11.80;99.90;;;;;;4919002;29;20099;-68
2022/05/11 02:35:39;;;;;;;27.33;18.33;;;11.70;99.90;;;;;;4937914;29;20044;-69
2022/05/11 02:38:15;;;;;;;23.67;19.13;;;11.70;99.90;;;;;;4938467;29;20366;-69
2022/05/11 02:40:42;;;;;;;24.58;19.20;;;11.70;99.90;;;;;;4938809;29;20024;-70
2022/05/11 02:43:09;;;;;;;21.70;18.10;;;11.70;99.90;;;;;;4938752;29;20038;-70
2022/05/11 02:45:36;;;;;;;22.10;17.63;;;11.70;99.90;;;;;;4938701;29;20031;-70
2022/05/11 02:48:02;;;;;;;26.95;18.42;;;11.70;99.90;;;;;;4938268;29;20424;-70
2022/05/11 02:50:32;;;;;;;26.30;17.58;;;11.70;99.90;;;;;;4938555;29;20039;-69
2022/05/11 02:52:58;;;;;;;28.65;17.27;;;11.60;99.90;;;;;;4938508;29;20028;-68
2022/05/11 02:55:23;;;;;;;24.35;17.35;;;11.50;99.90;;;;;;4938529;29;20541;-71
2022/05/11 02:57:49;;;;;;;23.65;17.40;;;11.50;99.90;;;;;;4938473;29;20532;-71
2022/05/11 03:00:18;;;;;;;22.83;18.38;;;11.50;99.90;;;;;;4937064;29;20465;-70
2022/05/11 03:02:45;;;;;;;27.05;19.35;;;;;;;;;;4937053;29;20038;-69
2022/05/11 03:05:12;;;;;;;27.42;20.83;;;;;;;;;;4938343;29;20024;-70
2022/05/11 03:07:39;;;;;;;21.38;18.60;;;;;;;;;;4938170;29;20036;-70
2022/05/11 03:10:06;;;;;;;26.20;19.00;;;;;;;;;;4938447;29;20031;-70
2022/05/11 03:12:32;;;;;;;28.50;20.30;;;;;;;;;;4936865;29;20421;-69
2022/05/11 03:14:59;;;;;;;24.95;19.67;;;;;;;;;;4936834;29;20051;-69
2022/05/11 03:17:26;;;;;;;26.88;18.27;;;;;;;;;;4936713;29;20491;-69
2022/05/11 03:19:52;;;;;;;21.27;16.48;;;;;;;;;;4938021;29;20074;-70
2022/05/11 03:22:18;;;;;;;20.80;17.13;;;;;;;;;;4937938;29;20015;-69
2022/05/11 03:24:45;;;;;;;20.90;15.30;;;;;;;;;;4938001;29;20024;-69
2022/05/11 03:27:11;;;;;;;23.02;14.45;;;;;;;;;;4936840;29;20496;-67
2022/05/11 03:29:37;;;;;;;27.15;14.52;;;;;;;;;;4937272;29;20032;-69
2022/05/11 03:34:49;;;;;;;31.55;16.55;;;;;;;;;;4937412;29;20054;-68
2022/05/11 03:37:17;;;;;;;32.30;14.00;;;;;;;;;;4937744;29;20023;-68
2022/05/11 03:39:43;;;;;;;20.08;13.52;;;;;;;;;;4936408;29;20039;-68
2022/05/11 03:42:13;;;;;;;24.45;14.52;;;;;;;;;;4937600;29;20036;-68
2022/05/11 03:44:39;;;;;;;22.58;13.82;;;;;;;;;;4937643;29;20085;-68
2022/05/11 03:47:05;;;;;;;22.45;13.48;;;;;;;;;;4937774;29;20095;-68
2022/05/11 03:49:32;;;;;;;18.67;14.18;;;;;;;;;;4937430;29;20038;-68
2022/05/11 03:51:58;;;;;;;19.30;13.70;;;;;;;;;;4937136;29;20365;-68
2022/05/11 03:54:24;;;;;;;20.67;15.05;;;;;;;;;;4937451;29;20034;-68
2022/05/11 03:56:50;;;;;;;17.38;12.63;;;;;;;;;;4937349;29;20472;-67
2022/05/11 03:59:17;;;;;;;21.02;13.65;;;;;;;;;;4937268;29;20434;-68
2022/05/11 04:01:43;;;;;;;27.00;15.20;;;;;;;;;;4936994;29;20020;-68
2022/05/11 04:04:09;;;;;;;19.13;13.70;;;;;;;;;;4937228;29;20532;-67
2022/05/11 04:06:35;;;;;;;29.60;15.30;;;;;;;;;;4937163;29;20024;-67
2022/05/11 04:09:02;;;;;;;26.45;15.43;;;;;;;;;;4935778;29;20492;-68
2022/05/11 04:11:29;;;;;;;25.52;16.05;;;;;;;;;;4935776;29;20031;-70
2022/05/11 04:13:55;;;;;;;28.27;15.77;;;;;;;;;;4937097;29;20535;-68
2022/05/11 04:16:22;;;;;;;28.50;16.40;;;;;;;;;;4937282;29;20461;-69
2022/05/11 04:18:48;;;;;;;21.77;14.73;;;11.80;99.90;;;;;;4936945;29;20070;-69
2022/05/11 04:21:14;;;;;;;20.55;14.10;;;11.80;99.90;;;;;;4936865;29;20027;-69
2022/05/11 04:23:40;;;;;;;22.02;13.45;;;11.90;99.90;;;;;;4935573;29;20835;-66
2022/05/11 04:26:08;;;;;;;35.92;15.35;;;12.00;99.90;;;;;;4936831;29;20058;-65
2022/05/11 04:28:34;;;;;;;35.40;16.10;;;12.10;99.90;;;;;;4936723;29;20075;-66
2022/05/11 04:31:01;;;;;;;25.73;17.10;;;12.10;99.90;;;;;;4936747;29;20433;-67
2022/05/11 04:33:27;;;;;;;28.10;17.15;;;12.10;99.90;;;;;;4936463;29;20066;-67
2022/05/11 04:35:53;;;;;;;28.98;19.08;;;12.20;99.90;;;;;;4936687;29;20075;-65
2022/05/11 04:38:19;;;;;;;41.75;20.27;;;12.20;99.90;;;;;;4936329;29;20036;-67
2022/05/11 04:40:45;;;;;;;33.00;19.23;;;12.30;99.90;;;;;;4936172;29;20035;-66
2022/05/11 04:43:11;;;;;;;34.55;20.45;;;12.40;99.90;;;;;;4936476;29;20151;-70
2022/05/11 04:45:42;;;;;;;36.55;22.25;;;12.40;99.90;;;;;;4935263;29;20031;-69
2022/05/11 04:48:09;;;;;;;31.92;22.50;;;12.50;99.90;;;;;;4936402;29;20041;-70
2022/05/11 04:50:42;;;;;;;29.38;22.73;;;12.60;99.90;;;;;;4936414;29;20035;-70
2022/05/11 04:53:09;;;;;;;33.67;20.98;;;12.60;99.90;;;;;;4936132;29;20122;-70
2022/05/11 04:55:35;;;;;;;37.63;19.67;;;12.70;99.90;;;;;;4936406;29;20028;-69
2022/05/11 04:58:01;;;;;;;27.55;19.10;;;12.80;99.90;;;;;;4936551;29;20079;-71
2022/05/11 05:00:28;;;;;;;28.35;19.80;;;12.90;99.90;;;;;;4936237;29;20110;-71
2022/05/11 05:02:54;;;;;;;24.20;19.33;;;12.90;99.90;;;;;;4936452;29;20039;-73
2022/05/11 05:05:20;;;;;;;29.15;20.60;;;13.00;99.90;;;;;;4936179;29;20024;-69
2022/05/11 05:07:46;;;;;;;30.50;20.95;;;13.10;99.90;;;;;;4936034;29;20476;-70
2022/05/11 05:10:13;;;;;;;28.65;19.35;;;13.20;99.90;;;;;;4936062;29;20036;-69
2022/05/11 05:12:43;;;;;;;29.05;20.65;;;13.10;99.90;;;;;;4935938;29;20028;-70
2022/05/11 05:15:11;;;;;;;28.48;20.25;;;13.10;99.90;;;;;;4936091;29;20073;-70
2022/05/11 05:17:37;;;;;;;33.17;20.20;;;13.20;99.90;;;;;;4934640;29;20027;-70
2022/05/11 05:20:07;;;;;;;28.20;19.88;;;13.20;99.90;;;;;;4934612;29;20050;-70
2022/05/11 05:22:33;;;;;;;33.45;20.27;;;13.20;99.90;;;;;;4935888;29;20603;-70
2022/05/11 05:24:59;;;;;;;28.05;21.13;;;13.20;99.90;;;;;;4935876;29;20111;-71
2022/05/11 05:27:25;;;;;;;34.15;22.13;;;13.20;99.90;;;;;;4935918;29;20110;-71
2022/05/11 05:32:41;;;;;;;27.25;19.70;;;13.40;99.90;;;;;;4935539;29;20099;-70
2022/05/11 05:35:09;;;;;;;26.52;19.73;;;13.40;99.90;;;;;;4934025;29;20142;-70
2022/05/11 05:37:35;;;;;;;28.17;19.85;;;13.50;99.90;;;;;;4935805;29;20036;-70
2022/05/11 05:40:01;;;;;;;27.23;20.63;;;13.50;99.90;;;;;;4934531;29;20119;-69
2022/05/11 05:42:28;;;;;;;28.30;21.67;;;13.60;99.90;;;;;;4935359;29;20031;-69
2022/05/11 05:44:55;;;;;;;32.78;21.67;;;13.70;99.90;;;;;;4935775;29;20031;-69
2022/05/11 05:47:21;;;;;;;32.83;19.88;;;13.70;99.90;;;;;;4935751;29;20028;-70
2022/05/11 05:49:47;;;;;;;25.42;19.63;;;13.80;99.90;;;;;;4935614;29;20086;-70
2022/05/11 05:52:16;;;;;;;27.25;19.23;;;;;;;;;;4935825;29;20040;-69
2022/05/11 05:54:42;;;;;;;26.48;20.60;;;;;;;;;;4939571;29;20058;-67
2022/05/11 05:57:09;;;;;;;28.38;22.65;;;;;;;;;;4939488;29;20027;-66
2022/05/11 05:59:35;;;;;;;28.77;21.65;;;;;;;;;;4922856;29;20035;-67
2022/05/11 06:02:01;;;;;;;39.50;22.00;;;13.90;99.90;;;;;;4920111;29;20020;-66
2022/05/11 06:04:26;;;;;;;29.42;20.90;;;14.40;99.90;;;;;;4918876;29;20036;-63
2022/05/11 06:06:52;;;;;;;30.67;21.20;;;14.40;99.90;;;;;;4920277;29;20111;-63
2022/05/11 06:09:18;;;;;;;29.20;21.20;;;14.50;99.90;;;;;;4920068;29;20036;-63
2022/05/11 06:11:44;;;;;;;32.28;21.23;;;14.60;99.90;;;;;;4920002;29;20024;-64
2022/05/11 06:14:11;;;;;;;36.50;23.13;;;14.60;99.90;;;;;;4920052;29;20028;-64
2022/05/11 06:16:37;;;;;;;33.58;21.20;;;14.70;99.90;;;;;;4920172;29;20067;-64
2022/05/11 06:19:03;;;;;;;27.08;21.15;;;14.80;99.90;;;;;;4919928;29;20032;-64
2022/05/11 06:21:29;;;;;;;34.97;20.08;;;14.90;99.90;;;;;;4919872;29;20529;-63
2022/05/11 06:23:56;;;;;;;26.77;20.52;;;;;;;;;;4919719;29;20043;-63
2022/05/11 06:26:22;;;;;;;25.55;21.10;;;15.00;99.90;;;;;;4919775;29;20500;-64
2022/05/11 06:28:48;;;;;;;23.38;18.40;;;15.10;99.90;;;;;;4918330;29;20032;-68
2022/05/11 06:31:14;;;;;;;25.65;18.60;;;15.20;99.90;;;;;;4919653;29;20358;-66
2022/05/11 06:33:40;;;;;;;25.75;17.77;;;15.30;99.90;;;;;;4919454;29;20453;-66
2022/05/11 06:36:08;;;;;;;23.55;17.02;;;15.40;99.90;;;;;;4918635;29;20389;-65
2022/05/11 06:38:34;;;;;;;24.90;17.50;;;15.40;99.90;;;;;;4918313;29;20092;-65
2022/05/11 06:41:11;;;;;;;23.58;17.65;;;15.50;99.90;;;;;;4921904;29;20115;-66
2022/05/11 06:43:37;;;;;;;24.48;18.42;;;15.50;99.90;;;;;;4925495;29;20032;-66
2022/05/11 06:46:04;;;;;;;21.50;17.15;;;15.60;99.90;;;;;;4917870;29;20127;-66
2022/05/11 06:48:30;;;;;;;28.05;18.20;;;15.80;99.90;;;;;;4919425;29;20158;-65
2022/05/11 06:50:56;;;;;;;21.88;17.10;;;15.90;99.90;;;;;;4919193;29;20433;-65
2022/05/11 06:53:22;;;;;;;25.85;17.13;;;16.00;99.90;;;;;;4919372;29;20111;-65
2022/05/11 07:01:16;;;;;;;22.20;15.70;;;16.20;99.90;;;;;;4936516;29;20047;-65
2022/05/11 07:03:42;;;;;;;18.98;14.55;;;16.40;99.90;;;;;;4934897;29;20473;-66
2022/05/11 07:06:08;;;;;;;18.58;14.80;;;16.40;99.90;;;;;;4935333;29;20031;-65
2022/05/11 07:08:40;;;;;;;19.30;14.98;;;16.60;99.90;;;;;;4937444;29;20031;-65
2022/05/11 07:13:53;;;;;;;19.85;15.23;;;16.60;99.90;;;;;;4931596;29;20050;-70
2022/05/11 07:16:19;;;;;;;19.92;15.73;;;16.90;99.90;;;;;;4919563;29;20444;-70
2022/05/11 07:18:45;;;;;;;21.38;15.82;;;17.10;99.90;;;;;;4917060;29;20046;-71
2022/05/11 07:21:11;;;;;;;17.08;14.15;;;17.30;99.90;;;;;;4918664;29;20107;-71
2022/05/11 07:23:37;;;;;;;21.67;15.25;;;17.40;99.90;;;;;;4918726;29;20035;-69
2022/05/11 07:26:03;;;;;;;16.83;15.02;;;17.50;99.90;;;;;;4918663;29;20028;-71
2022/05/11 07:28:29;;;;;;;18.95;14.05;;;;;;;;;;4918576;29;20040;-70
2022/05/11 07:30:55;;;;;;;20.88;15.48;;;17.60;99.90;;;;;;4918850;29;20032;-70
2022/05/11 07:33:21;;;;;;;21.13;14.60;;;18.00;99.90;;;;;;4917022;29;20187;-70
2022/05/11 07:35:47;;;;;;;20.75;15.15;;;18.00;99.90;;;;;;4918510;29;20024;-70
2022/05/11 07:38:17;;;;;;;23.98;16.15;;;18.00;99.90;;;;;;4918515;29;20040;-70
2022/05/11 07:40:44;;;;;;;19.92;15.25;;;18.10;99.90;;;;;;4918363;29;20034;-71
2022/05/11 07:43:11;;;;;;;22.02;16.10;;;18.30;99.90;;;;;;4918440;29;20067;-68
2022/05/11 07:45:38;;;;;;;22.92;16.67;;;18.40;99.90;;;;;;4918282;29;20056;-69
2022/05/11 07:48:04;;;;;;;23.95;15.48;;;18.40;99.90;;;;;;4918261;29;20479;-69
2022/05/11 07:50:31;;;;;;;20.88;15.00;;;18.50;99.90;;;;;;4918067;29;20051;-69
2022/05/11 07:52:57;;;;;;;18.02;15.95;;;18.70;99.90;;;;;;4918026;29;20091;-68
2022/05/11 07:55:25;;;;;;;19.70;15.02;;;18.80;99.90;;;;;;4917806;29;20437;-69
2022/05/11 08:00:36;;;;;;;19.80;16.60;;;19.20;99.90;;;;;;4936650;29;20095;-69
2022/05/11 08:03:03;;;;;;;23.25;15.18;;;19.30;99.90;;;;;;4936613;29;20038;-69
2022/05/11 08:05:32;;;;;;;22.23;14.00;;;19.40;99.90;;;;;;4936830;29;20038;-69
2022/05/11 08:07:59;;;;;;;16.23;13.02;;;19.40;99.90;;;;;;4936924;29;20059;-69
2022/05/11 08:10:29;;;;;;;15.48;11.95;;;19.60;99.90;;;;;;4936554;29;20366;-70
2022/05/11 08:12:55;;;;;;;15.27;11.60;;;19.70;99.90;;;;;;4935530;29;20357;-70
2022/05/11 08:15:24;;;;;;;22.05;12.20;;;19.90;99.90;;;;;;4936767;29;20035;-70
2022/05/11 08:17:52;;;;;;;21.77;12.52;;;20.00;99.90;;;;;;4936876;29;20362;-71
2022/05/11 08:20:27;;;;;;;13.63;10.32;;;20.20;99.90;;;;;;4936955;29;20528;-70
2022/05/11 08:22:53;;;;;;;13.60;9.88;;;20.40;99.90;;;;;;4936557;29;20110;-71
2022/05/11 08:25:21;;;;;;;18.50;12.82;;;20.50;99.90;;;;;;4936745;29;20031;-70
2022/05/11 08:27:48;;;;;;;17.02;10.07;;;20.60;99.90;;;;;;4936348;29;20019;-71
2022/05/11 08:33:19;;;;;;;14.00;10.93;;;20.90;99.90;;;;;;4936334;29;20038;-70
2022/05/11 08:35:45;;;;;;;11.98;8.25;;;21.00;99.90;;;;;;4898532;29;20044;-71
2022/05/11 08:38:11;;;;;;;9.02;8.07;;;21.20;99.90;;;;;;4898354;29;20033;-71
2022/05/11 08:40:37;;;;;;;11.82;8.05;;;21.30;99.90;;;;;;4898285;29;20029;-71
2022/05/11 08:43:11;;;;;;;10.40;6.93;;;21.30;99.90;;;;;;4898498;29;20525;-70
2022/05/11 08:45:46;;;;;;;15.32;7.63;;;;;;;;;;4897315;29;20028;-71
2022/05/11 08:48:26;;;;;;;14.65;8.40;;;21.50;99.90;;;;;;4898212;29;20039;-71
2022/05/11 08:50:52;;;;;;;9.63;7.10;;;21.80;99.90;;;;;;4898607;29;20036;-71
2022/05/11 08:53:39;;;;;;;10.90;6.70;;;21.90;99.90;;;;;;4898241;29;20029;-71
2022/05/11 08:56:12;;;;;;;7.93;7.13;;;22.10;99.90;;;;;;4898740;29;20063;-71
2022/05/11 08:58:46;;;;;;;11.18;7.05;;;22.20;99.90;;;;;;4898406;29;20042;-71
2022/05/11 09:01:19;;;;;;;10.50;6.78;;;22.30;99.90;;;;;;4898421;29;20037;-71
2022/05/11 09:03:45;;;;;;;10.00;5.65;;;22.40;99.90;;;;;;4898564;29;20477;-70
2022/05/11 09:06:31;;;;;;;8.55;4.70;;;22.50;99.90;;;;;;4896946;29;20032;-70
2022/05/11 09:09:00;;;;;;;7.72;5.05;;;22.60;99.90;;;;;;4897646;29;20044;-71
2022/05/11 09:11:32;;;;;;;13.50;6.88;;;22.70;99.90;;;;;;4897987;29;20041;-71
2022/05/11 09:13:59;;;;;;;14.93;6.85;;;22.80;99.90;;;;;;4897766;29;20513;-72
2022/05/11 09:16:38;;;;;;;12.13;5.43;;;22.90;99.90;;;;;;4892353;29;20039;-68
2022/05/11 09:19:15;;;;;;;9.63;4.55;;;23.00;99.90;;;;;;4897938;29;20033;-69
2022/05/11 09:21:53;;;;;;;7.25;5.15;;;23.20;99.90;;;;;;4898107;29;20065;-68
2022/05/11 09:24:21;;;;;;;10.10;5.72;;;23.20;99.90;;;;;;4897955;29;20044;-67
2022/05/11 09:26:59;;;;;;;7.15;4.90;;;23.50;99.90;;;;;;4897741;29;20032;-65
2022/05/11 09:29:35;;;;;;;10.88;4.18;;;23.60;99.90;;;;;;4896410;29;20037;-67
2022/05/11 09:32:19;;;;;;;8.18;4.30;;;23.80;99.90;;;;;;4897901;29;20084;-69
2022/05/11 09:34:45;;;;;;;7.80;3.70;;;24.00;99.90;;;;;;4918752;29;20043;-71
2022/05/11 09:37:35;;;;;;;6.85;4.60;;;24.10;99.80;;;;;;4936013;29;20028;-72
2022/05/11 09:40:21;;;;;;;8.00;4.57;;;24.20;99.90;;;;;;4935749;29;20047;-72
2022/05/11 09:42:49;;;;;;;7.45;4.95;;;;;;;;;;4935635;29;20114;-72
2022/05/11 09:45:36;;;;;;;7.80;4.75;;;;;;;;;;4935610;29;20033;-72
2022/05/11 09:48:12;;;;;;;5.20;4.65;;;;;;;;;;4927842;29;20341;-72
2022/05/11 09:50:40;;;;;;;5.20;3.70;;;24.30;99.90;;;;;;4935252;29;20028;-72
2022/05/11 09:53:27;;;;;;;6.78;3.85;;;24.90;97.90;;;;;;4924347;29;20111;-73
2022/05/11 09:55:53;;;;;;;5.97;3.20;;;25.10;99.80;;;;;;4916206;29;20062;-74
2022/05/11 09:58:32;;;;;;;7.50;3.47;;;25.00;97.10;;;;;;4916559;29;20032;-75
2022/05/11 10:01:11;;;;;;;3.67;2.83;;;25.10;94.10;;;;;;4915324;29;20064;-74
2022/05/11 10:03:42;;;;;;;2.83;2.63;;;25.20;92.80;;;;;;4915611;29;20037;-72
2022/05/11 10:06:09;;;;;;;5.38;3.05;;;25.50;92.50;;;;;;4914103;29;20047;-75
2022/05/11 10:08:37;;;;;;;8.90;3.30;;;25.20;91.10;;;;;;4916376;29;20040;-71
2022/05/11 10:11:10;;;;;;;5.10;2.80;;;25.40;91.80;;;;;;4915221;29;20384;-71
2022/05/11 10:13:44;;;;;;;8.48;3.15;;;25.80;91.60;;;;;;4916240;29;20056;-70
2022/05/11 10:22:25;;;;;;;3.88;3.38;;;26.00;88.40;;;;;;4916652;29;20397;-70
2022/05/11 10:25:05;;;;;;;4.20;2.95;;;26.40;88.50;;;;;;4916364;29;20028;-69
2022/05/11 10:27:34;;;;;;;8.23;3.03;;;;;;;;;;4916301;29;20036;-70
2022/05/11 10:30:18;;;;;;;10.50;3.75;;;26.80;85.00;;;;;;4914798;29;20028;-74
2022/05/11 10:33:09;;;;;;;6.15;2.95;;;27.50;88.50;;;;;;4916376;29;20520;-72
2022/05/11 10:35:48;;;;;;;3.97;2.95;;;28.40;87.20;;;;;;4914795;29;20051;-71
2022/05/11 10:38:51;;;;;;;4.20;2.58;;;28.70;79.50;;;;;;4916064;29;20115;-72
2022/05/11 10:41:36;;;;;;;5.10;3.30;;;29.40;79.60;;;;;;4919688;29;20028;-73
2022/05/11 10:44:24;;;;;;;3.45;3.00;;;29.70;78.50;;;;;;4919532;29;20051;-72
2022/05/11 10:47:21;;;;;;;5.35;2.75;;;29.90;78.40;;;;;;4919359;29;20032;-72
2022/05/11 10:49:56;;;;;;;3.03;2.40;;;30.80;71.70;;;;;;4919568;29;20442;-72
2022/05/11 10:52:44;;;;;;;4.43;2.85;;;31.00;71.10;;;;;;4919600;29;20040;-72
2022/05/11 10:55:16;;;;;;;9.48;2.50;;;31.20;69.40;;;;;;4919502;29;20035;-73
2022/05/11 10:58:18;;;;;;;3.65;1.88;;;31.30;69.10;;;;;;4917739;29;20465;-70
2022/05/11 11:01:06;;;;;;;3.80;2.03;;;31.50;65.60;;;;;;4919577;29;20047;-70
2022/05/11 11:04:03;;;;;;;2.55;2.03;;;32.60;61.20;;;;;;4918082;29;20115;-70
2022/05/11 11:07:11;;;;;;;2.50;2.30;;;32.60;61.50;;;;;;4924210;29;20366;-64
2022/05/11 11:09:39;;;;;;;3.97;2.30;;;32.90;63.20;;;;;;4919070;29;20123;-67
2022/05/11 11:12:14;;;;;;;5.93;2.70;;;32.60;60.40;;;;;;4917826;29;20028;-66
2022/05/11 11:14:44;;;;;;;3.58;2.47;;;33.10;63.50;;;;;;4919025;29;20496;-67
2022/05/11 11:17:15;;;;;;;4.13;3.10;;;32.80;62.60;;;;;;4918960;29;20035;-70
2022/05/11 11:19:43;;;;;;;;;;;32.50;63.00;;;;;;4921654;29;20122;-68
2022/05/11 11:22:09;;;;;;;4.45;2.50;;;33.60;66.80;;;;;;4946826;29;19934;-69
2022/05/11 11:24:36;;;;;;;3.42;2.55;;;34.40;59.60;;;;;;4956973;28;20035;-69
2022/05/11 11:27:05;;;;;;;5.63;1.90;;;34.20;60.70;;;;;;4955550;28;20457;-71
2022/05/11 11:29:36;;;;;;;3.33;1.92;;;33.60;57.90;;;;;;4937179;29;20060;-71
2022/05/11 11:32:17;;;;;;;2.33;1.98;;;33.50;55.40;;;;;;4936404;29;20036;-69
2022/05/11 11:34:44;;;;;;;3.20;2.17;;;33.50;56.40;;;;;;4936184;29;20052;-70
2022/05/11 11:37:31;;;;;;;5.13;2.35;;;33.90;58.80;;;;;;4936361;29;20039;-69
2022/05/11 11:40:24;;;;;;;2.92;1.83;;;34.20;58.30;;;;;;4937711;29;20047;-73
2022/05/11 11:42:51;;;;;;;4.63;2.00;;;34.40;55.10;;;;;;4914440;29;20051;-72
2022/05/11 11:45:29;;;;;;;2.83;1.70;;;34.70;57.70;;;;;;4918537;29;20020;-71
2022/05/11 11:48:18;;;;;;;2.33;1.80;;;34.50;76.40;;;;;;4918163;29;20465;-71
2022/05/11 11:50:59;;;;;;;4.55;2.50;;;34.80;54.00;;;;;;4918041;29;20079;-71
2022/05/11 11:53:33;;;;;;;2.40;2.20;;;35.80;54.60;;;;;;4918428;29;20036;-71
2022/05/11 11:56:23;;;;;;;4.38;2.10;;;35.90;54.10;;;;;;4918334;29;20028;-71
2022/05/11 11:59:03;;;;;;;4.10;2.00;;;36.30;52.10;;;;;;4918543;29;20078;-70
2022/05/11 12:01:34;;;;;;;2.45;1.90;;;36.40;54.60;;;;;;4918114;29;20032;-71
2022/05/11 12:04:05;;;;;;;2.17;1.85;;;36.30;52.20;;;;;;4918492;29;20024;-74
2022/05/11 12:15:02;;;;;;;2.60;2.08;;;;;;;;;;4917961;29;20533;-68
2022/05/11 12:17:37;;;;;;;2.42;1.73;;;37.10;49.40;;;;;;4917710;29;20032;-67
2022/05/11 12:20:06;;;;;;;5.47;2.20;;;38.40;51.30;;;;;;4915183;29;20059;-68
2022/05/11 12:22:36;;;;;;;3.05;2.17;;;38.00;50.50;;;;;;4916792;29;20030;-68
2022/05/11 12:25:21;;;;;;;3.67;2.30;;;37.70;49.30;;;;;;4917680;29;20115;-68
2022/05/11 12:27:49;;;;;;;5.28;2.63;;;39.00;50.60;;;;;;4915003;29;20039;-68
2022/05/11 12:30:39;;;;;;;3.40;2.22;;;39.60;49.80;;;;;;4917567;29;20028;-68
2022/05/11 12:33:07;;;;;;;2.30;2.13;;;38.60;46.70;;;;;;4917693;29;20107;-72
2022/05/11 12:35:43;;;;;;;3.00;2.17;;;38.00;48.30;;;;;;4917595;29;20047;-68
2022/05/11 12:38:12;;;;;;;2.35;2.08;;;39.00;48.70;;;;;;4916341;29;20079;-68
2022/05/11 12:40:52;;;;;;;2.83;2.10;;;38.70;47.60;;;;;;4916277;29;20363;-68
2022/05/11 12:43:30;;;;;;;5.33;2.00;;;39.60;49.80;;;;;;4917810;29;20032;-68
2022/05/11 12:46:00;;;;;;;3.00;1.80;;;;;;;;;;4917554;29;20728;-68
2022/05/11 12:48:32;;;;;;;4.53;2.20;;;;;;;;;;4917674;29;20029;-68
2022/05/11 12:51:07;;;;;;;5.00;2.13;;;;;;;;;;4916107;29;20032;-69
2022/05/11 12:53:47;;;;;;;2.50;1.70;;;;;;;;;;4917250;29;20024;-69
2022/05/11 12:56:16;;;;;;;2.80;2.13;;;;;;;;;;4916055;29;20032;-68
2022/05/11 12:58:44;;;;;;;4.53;2.28;;;;;;;;;;4917270;29;20103;-69
2022/05/11 13:01:12;;;;;;;2.80;1.92;;;;;;;;;;4917242;29;20107;-68
2022/05/11 13:03:38;;;;;;;5.45;1.80;;;40.00;47.90;;;;;;4916453;29;20608;-68
2022/05/11 13:06:20;;;;;;;5.35;2.28;;;;;;;;;;4917375;29;20536;-69
2022/05/11 13:08:49;;;;;;;5.60;2.08;;;38.60;47.00;;;;;;4915882;29;20028;-69
2022/05/11 13:11:16;;;;;;;5.78;3.28;;;;;;;;;;4915645;29;20032;-69
2022/05/11 13:13:44;;;;;;;3.75;2.40;;;;;;;;;;4916885;29;20021;-67
2022/05/11 13:16:19;;;;;;;3.35;2.42;;;39.20;47.00;;;;;;4916721;29;20056;-68
2022/05/11 13:18:46;;;;;;;4.20;2.10;;;40.60;44.50;;;;;;4916926;29;20040;-68
2022/05/11 13:21:12;;;;;;;3.72;2.45;;;39.50;44.90;;;;;;4916883;29;20032;-68
2022/05/11 13:23:48;;;;;;;4.75;1.90;;;;;;;;;;4916759;29;20028;-68
2022/05/11 13:26:34;;;;;;;5.18;2.22;;;;;;;;;;4916445;29;20648;-68
2022/05/11 13:29:16;;;;;;;2.83;2.30;;;39.70;43.80;;;;;;4915775;29;20376;-68
2022/05/11 13:31:42;;;;;;;2.08;1.98;;;;;;;;;;4915418;29;20374;-69
2022/05/11 13:34:41;;;;;;;8.13;2.38;;;42.60;48.00;;;;;;4916464;29;20052;-69
2022/05/11 13:37:25;;;;;;;2.30;2.10;;;40.10;43.90;;;;;;4916843;29;20025;-69
2022/05/11 13:39:51;;;;;;;3.63;1.80;;;40.60;45.60;;;;;;4914469;29;20190;-70
2022/05/11 13:42:24;;;;;;;2.92;2.28;;;41.70;44.80;;;;;;4916552;29;20103;-69
2022/05/11 13:44:56;;;;;;;1.98;1.65;;;;;;;;;;4916617;29;20025;-69
2022/05/11 13:50:26;;;;;;;3.15;1.90;;;40.70;44.90;;;;;;4935454;29;20043;-71